Time;durP1;ratioP1;P1;durP2;ratioP2;P2;SDS_P1;SDS_P2;PMS_P1;PMS_P2;Temp;Humidity;BMP_temperature;BMP_pressure;BME280_temperature;BME280_humidity;BME280_pressure;Samples;Min_cycle;Max_cycle;Signal;HPM_P1;HPM_P2
2022/08/09 00:01:21;;;;;;;8.70;4.17;;;;;;;19.89;57.30;101645.44;5322620;55;1141234;-65
2022/08/09 00:06:26;;;;;;;19.17;4.67;;;;;;;19.86;57.38;101645.77;5308369;55;1139108;-64
2022/08/09 00:11:32;;;;;;;9.38;3.50;;;;;;;19.81;57.48;101647.55;5246341;55;1141143;-63
2022/08/09 00:16:38;;;;;;;20.12;2.83;;;;;;;19.77;57.66;101647.50;5321417;55;1138718;-63
2022/08/09 00:21:44;;;;;;;11.57;3.20;;;;;;;19.62;57.48;101650.34;5313890;55;1141301;-64
2022/08/09 00:26:50;;;;;;;10.08;3.25;;;;;;;19.39;57.82;101647.20;5311556;55;1141120;-63
2022/08/09 00:31:56;;;;;;;20.77;3.60;;;;;;;19.33;58.95;101647.30;5310943;55;1141207;-63
2022/08/09 00:37:02;;;;;;;17.70;4.53;;;;;;;19.23;59.24;101651.02;5321633;55;1141006;-65
2022/08/09 00:42:08;;;;;;;8.60;4.05;;;;;;;19.10;59.45;101645.95;5321516;55;1141215;-65
2022/08/09 00:47:14;;;;;;;12.65;3.58;;;;;;;19.04;59.75;101652.42;5316501;55;1139021;-62
2022/08/09 00:52:21;;;;;;;11.08;3.15;;;;;;;18.97;60.23;101652.99;5318695;55;1141333;-63
2022/08/09 00:57:29;;;;;;;16.32;3.80;;;;;;;19.04;60.54;101658.63;5311832;55;1141185;-62
2022/08/09 01:02:42;;;;;;;8.90;3.45;;;;;;;19.13;60.75;101653.72;5353257;54;1141126;-62
2022/08/09 01:08:08;;;;;;;19.05;3.87;;;;;;;19.16;60.40;101652.09;5357185;55;1139251;-62
2022/08/09 01:13:50;;;;;;;13.83;3.25;;;;;;;19.21;61.00;101652.50;5346257;55;1141389;-65
2022/08/09 01:19:01;;;;;;;14.73;4.87;;;;;;;19.22;60.96;101656.87;5391816;55;1139090;-63
2022/08/09 01:24:36;;;;;;;13.55;3.83;;;;;;;18.95;60.88;101657.66;5387837;54;1139062;-63
2022/08/09 01:30:00;;;;;;;15.23;4.90;;;;;;;18.96;61.94;101663.86;5391803;54;1139069;-64
2022/08/09 01:35:22;;;;;;;12.03;4.75;;;;;;;18.76;62.10;101662.23;5392079;54;1141437;-63
2022/08/09 01:40:30;;;;;;;10.33;4.37;;;;;;;18.55;62.76;101667.23;5392142;55;1141168;-64
2022/08/09 01:45:36;;;;;;;19.52;4.37;;;;;;;18.38;63.28;101666.61;5391781;55;1141166;-65
2022/08/09 01:50:49;;;;;;;16.02;4.55;;;;;;;18.35;64.13;101668.22;5391751;54;1141415;-64
2022/08/09 01:55:57;;;;;;;15.05;3.90;;;;;;;18.32;64.38;101663.17;5387966;55;1141522;-65
2022/08/09 02:01:06;;;;;;;14.90;4.15;;;;;;;18.21;64.70;101661.95;5379839;54;1141277;-63
2022/08/09 02:06:12;;;;;;;9.08;4.00;;;;;;;18.24;65.19;101667.03;5392019;55;1141138;-64
2022/08/09 02:11:19;;;;;;;26.33;4.75;;;;;;;18.40;65.66;101657.94;5305247;55;1139053;-63
2022/08/09 02:16:29;;;;;;;17.37;4.30;;;;;;;18.50;65.42;101658.77;5270235;55;1141169;-63
2022/08/09 02:21:38;;;;;;;19.90;3.70;;;;;;;18.54;65.83;101666.03;5309781;55;1140929;-63
2022/08/09 02:26:46;;;;;;;12.47;3.65;;;;;;;18.58;65.74;101662.97;5300523;55;1141283;-62
2022/08/09 02:31:57;;;;;;;24.60;4.00;;;;;;;18.68;65.63;101667.45;5311002;55;1141115;-63
2022/08/09 02:37:06;;;;;;;18.90;3.92;;;;;;;18.77;65.47;101666.61;5379896;54;1140796;-63
2022/08/09 02:42:19;;;;;;;27.07;3.95;;;;;;;18.81;65.21;101667.50;5390165;55;1141003;-64
2022/08/09 02:47:27;;;;;;;10.68;4.08;;;;;;;18.83;64.97;101668.20;5380743;55;1141337;-63
2022/08/09 02:52:37;;;;;;;13.68;3.55;;;;;;;18.85;64.97;101665.38;5380765;54;1141117;-63
2022/08/09 02:57:45;;;;;;;22.62;4.40;;;;;;;18.85;65.18;101672.08;5376247;54;1141064;-62
2022/08/09 03:02:55;;;;;;;16.73;3.62;;;;;;;18.84;65.80;101665.03;5402886;54;1141292;-62
2022/08/09 03:08:03;;;;;;;17.37;3.60;;;;;;;18.77;65.69;101669.30;5224965;55;1140641;-64
2022/08/09 03:13:10;;;;;;;6.58;3.40;;;;;;;18.78;65.93;101670.49;5375636;54;1141175;-65
2022/08/09 03:18:17;;;;;;;16.93;3.67;;;;;;;18.73;65.94;101675.43;5250962;56;1139183;-63
2022/08/09 03:23:25;;;;;;;11.30;3.70;;;;;;;18.70;66.25;101678.88;5299156;55;1141033;-64
2022/08/09 03:28:33;;;;;;;10.03;3.70;;;;;;;18.76;66.48;101676.98;5423638;54;1141243;-64
2022/08/09 03:33:40;;;;;;;8.28;3.40;;;;;;;18.80;66.42;101681.04;5250990;56;1141112;-64
2022/08/09 03:38:46;;;;;;;12.66;3.74;;;;;;;18.78;66.36;101673.66;5416132;54;1139415;-64
2022/08/09 03:43:52;;;;;;;12.00;4.03;;;;;;;18.67;66.14;101677.82;5250182;56;1138892;-62
2022/08/09 03:49:03;;;;;;;20.37;4.08;;;;;;;18.52;66.84;101674.70;5386152;54;1138971;-63
2022/08/09 03:54:14;;;;;;;23.15;4.60;;;;;;;18.51;67.44;101673.02;5339902;54;1139159;-65
2022/08/09 03:59:20;;;;;;;16.97;4.12;;;;;;;18.53;67.68;101671.89;5163922;57;1139332;-63
2022/08/09 04:04:28;;;;;;;21.12;4.67;;;;;;;18.48;67.76;101685.38;5249501;56;1138988;-63
2022/08/09 04:09:34;;;;;;;28.12;4.97;;;;;;;18.50;68.22;101679.35;5249248;56;1139016;-63
2022/08/09 04:14:41;;;;;;;25.97;4.90;;;;;;;18.50;68.34;101678.02;5350800;54;1139272;-63
2022/08/09 04:19:47;;;;;;;12.70;4.20;;;;;;;18.50;68.41;101677.52;5329938;55;1139054;-64
2022/08/09 04:24:53;;;;;;;32.08;5.05;;;;;;;18.49;68.60;101683.02;5319107;55;1139110;-63
2022/08/09 04:29:59;;;;;;;21.17;5.10;;;;;;;18.45;68.67;101682.97;5339746;55;1139088;-64
2022/08/09 04:35:06;;;;;;;22.67;4.08;;;;;;;18.40;69.07;101686.06;5423161;54;1139042;-64
2022/08/09 04:40:12;;;;;;;12.13;3.67;;;;;;;18.37;69.79;101693.04;5373561;54;1139376;-64
2022/08/09 04:45:18;;;;;;;14.50;3.37;;;;;;;18.41;70.40;101698.48;5337615;54;1138785;-64
2022/08/09 04:50:24;;;;;;;12.23;3.92;;;;;;;18.46;70.55;101704.76;5161945;56;1139162;-62
2022/08/09 04:55:30;;;;;;;12.73;3.72;;;;;;;18.51;70.46;101706.01;5251361;55;1139053;-64
2022/08/09 05:00:36;;;;;;;27.52;5.53;;;;;;;18.59;70.64;101703.52;5251302;55;1136849;-64
2022/08/09 05:05:41;;;;;;;25.88;4.78;;;;;;;18.58;70.66;101707.64;5330121;55;1136964;-64
2022/08/09 05:10:47;;;;;;;69.97;8.48;;;;;;;18.59;71.07;101698.16;5187097;56;1141109;-63
2022/08/09 05:15:53;;;;;;;48.63;5.33;;;;;;;18.64;71.24;101705.75;5240036;56;1141506;-63
2022/08/09 05:21:00;;;;;;;26.30;4.73;;;;;;;18.64;71.48;101712.97;5245996;56;1141037;-63
2022/08/09 05:26:05;;;;;;;26.40;4.43;;;;;;;18.59;71.55;101709.37;5333523;55;1141152;-65
2022/08/09 05:31:11;;;;;;;39.75;5.62;;;;;;;18.58;71.69;101713.00;5340790;55;1141412;-62
2022/08/09 05:36:16;;;;;;;40.55;6.35;;;;;;;18.57;71.92;101719.34;5340954;55;1141045;-63
2022/08/09 05:41:24;;;;;;;26.37;4.62;;;;;;;18.62;72.00;101722.48;5340137;55;1141372;-63
2022/08/09 05:46:30;;;;;;;37.98;5.62;;;;;;;18.70;72.24;101726.62;5341049;55;1141311;-63
2022/08/09 05:51:36;;;;;;;26.20;5.92;;;;;;;18.78;72.33;101720.57;5337664;55;1141227;-64
2022/08/09 05:56:42;;;;;;;63.13;6.55;;;;;;;18.83;72.29;101718.28;5330469;55;1141064;-65
2022/08/09 06:01:49;;;;;;;26.45;4.67;;;;;;;18.87;72.15;101719.70;5390460;55;1141546;-64
2022/08/09 06:06:54;;;;;;;11.65;4.15;;;;;;;18.92;72.17;101722.31;5191530;56;1141413;-64
2022/08/09 06:12:00;;;;;;;14.35;4.55;;;;;;;18.89;71.92;101728.45;5198500;56;1141392;-63
2022/08/09 06:17:06;;;;;;;22.07;5.50;;;;;;;18.88;71.74;101729.44;5232263;55;1140936;-62
2022/08/09 06:22:11;;;;;;;18.48;4.58;;;;;;;18.90;71.81;101735.02;5230239;56;1141192;-65
2022/08/09 06:27:17;;;;;;;30.35;4.33;;;;;;;18.93;71.97;101734.73;5242702;56;1141334;-64
2022/08/09 06:32:23;;;;;;;11.25;3.67;;;;;;;18.99;71.87;101745.35;5238247;56;1141118;-63
2022/08/09 06:37:31;;;;;;;17.40;4.12;;;;;;;19.06;71.57;101746.48;5242897;55;1141149;-62
2022/08/09 06:42:37;;;;;;;36.65;5.85;;;;;;;19.14;71.37;101755.13;5242986;56;1141128;-64
2022/08/09 06:47:45;;;;;;;28.75;4.90;;;;;;;19.24;71.73;101757.32;5241972;56;1141144;-64
2022/08/09 06:52:51;;;;;;;26.60;4.47;;;;;;;19.33;72.07;101755.94;5242610;55;1141525;-63
2022/08/09 06:57:58;;;;;;;23.60;4.87;;;;;;;19.42;71.78;101752.86;5242875;55;1141083;-64
2022/08/09 07:03:05;;;;;;;12.58;4.78;;;;;;;19.50;71.62;101763.76;5239021;55;1141173;-64
2022/08/09 07:08:11;;;;;;;25.17;4.72;;;;;;;19.60;71.22;101765.05;5211751;56;1141081;-63
2022/08/09 07:13:16;;;;;;;21.20;4.80;;;;;;;19.70;71.10;101769.91;5199069;55;1141366;-65
2022/08/09 07:18:22;;;;;;;25.00;5.53;;;;;;;19.76;70.27;101771.13;5196415;56;1141014;-65
2022/08/09 07:23:28;;;;;;;11.18;4.78;;;;;;;19.79;70.05;101770.34;5150234;56;1141503;-64
2022/08/09 07:28:34;;;;;;;13.25;4.42;;;;;;;19.89;70.25;101771.63;5218103;56;1141080;-65
2022/08/09 07:33:40;;;;;;;7.40;3.40;;;;;;;20.08;69.96;101779.59;5227206;56;1141495;-65
2022/08/09 07:38:45;;;;;;;10.02;3.64;;;;;;;20.19;69.58;101778.53;5227313;56;1139261;-65
2022/08/09 07:43:51;;;;;;;17.75;3.65;;;;;;;20.33;69.56;101782.89;5227551;56;1141209;-64
2022/08/09 07:48:57;;;;;;;8.43;3.33;;;;;;;20.54;69.16;101779.11;5219826;56;1141403;-64
2022/08/09 07:54:04;;;;;;;15.10;4.12;;;;;;;20.81;68.79;101783.05;5225264;55;1139118;-65
2022/08/09 07:59:09;;;;;;;8.88;3.37;;;;;;;21.14;68.70;101783.32;5206657;55;1141399;-64
2022/08/09 08:04:15;;;;;;;5.95;3.17;;;;;;;21.46;66.74;101780.89;5226171;56;1138984;-63
2022/08/09 08:09:21;;;;;;;3.45;2.33;;;;;;;21.63;65.78;101778.63;5282699;55;1138982;-65
2022/08/09 08:14:26;;;;;;;23.20;3.50;;;;;;;21.87;64.12;101783.27;5293810;55;1139331;-66
2022/08/09 08:19:32;;;;;;;5.12;2.90;;;;;;;22.02;61.02;101779.48;5285004;55;1141203;-65
2022/08/09 08:24:38;;;;;;;11.18;3.27;;;;;;;22.02;60.40;101781.69;5275399;55;1139402;-64
2022/08/09 08:29:43;;;;;;;6.45;2.77;;;;;;;22.00;60.22;101785.55;5298536;55;1141170;-64
2022/08/09 08:34:49;;;;;;;26.35;3.30;;;;;;;22.12;60.89;101782.92;5291447;55;1136954;-65
2022/08/09 08:39:55;;;;;;;18.87;3.20;;;;;;;22.32;61.41;101782.95;5295146;55;1139380;-65
2022/08/09 08:45:02;;;;;;;17.73;2.77;;;;;;;22.68;60.05;101777.29;5281857;55;1139316;-66
2022/08/09 08:50:08;;;;;;;15.15;3.27;;;;;;;23.03;58.98;101775.65;5281971;55;1139164;-65
2022/08/09 09:15:40;;;;;;;3.98;2.25;;;;;;;24.02;53.55;101773.03;5460920;53;46974;-64
2022/08/09 09:20:46;;;;;;;11.45;2.33;;;;;;;24.34;53.37;101777.45;5190671;56;1134886;-63
2022/08/09 09:25:52;;;;;;;7.58;2.70;;;;;;;24.31;50.55;101777.29;5129180;56;1140916;-64
2022/08/09 09:31:00;;;;;;;7.67;3.30;;;;;;;24.27;50.71;101780.55;5104035;56;1139126;-64
2022/08/09 09:36:10;;;;;;;10.90;3.70;;;;;;;24.29;51.78;101779.33;5165844;56;1139095;-63
2022/08/09 09:41:29;;;;;;;13.00;3.37;;;;;;;24.35;51.82;101782.69;5103396;56;1141249;-64
2022/08/09 09:46:38;;;;;;;14.05;3.60;;;;;;;24.39;51.85;101779.96;5152035;56;1141243;-62
2022/08/09 09:51:43;;;;;;;5.30;2.72;;;;;;;24.54;51.29;101784.09;5145542;56;1141147;-63
2022/08/09 09:56:51;;;;;;;11.80;2.70;;;;;;;24.71;50.83;101784.81;5141303;56;1139234;-61
2022/08/09 10:02:02;;;;;;;11.75;2.77;;;;;;;24.96;51.43;101779.55;5143267;56;1141311;-63
2022/08/09 10:07:23;;;;;;;8.00;3.35;;;;;;;25.09;49.47;101779.77;5191238;56;1140986;-64
2022/08/09 10:12:33;;;;;;;30.40;3.60;;;;;;;25.28;49.72;101777.56;5293823;55;1139110;-62
2022/08/09 10:17:39;;;;;;;5.33;2.50;;;;;;;25.44;47.89;101768.77;5311254;55;1141115;-63
2022/08/09 10:22:47;;;;;;;13.13;2.60;;;;;;;25.53;46.62;101772.20;5101851;57;1139060;-63
2022/08/09 10:27:54;;;;;;;7.78;2.33;;;;;;;25.94;45.57;101778.03;5210866;56;1141193;-63
2022/08/09 10:33:00;;;;;;;9.30;2.02;;;;;;;26.16;43.40;101771.61;5210696;56;1139292;-63
2022/08/09 10:38:06;;;;;;;7.17;2.60;;;;;;;26.29;44.28;101766.88;5210738;56;1139066;-62
2022/08/09 10:43:13;;;;;;;7.25;2.62;;;;;;;26.68;44.22;101766.47;5223717;56;1139166;-65
2022/08/09 10:48:41;;;;;;;18.55;3.12;;;;;;;26.85;43.31;101748.03;5232771;55;1139173;-64
2022/08/09 10:54:05;;;;;;;8.23;3.90;;;;;;;26.86;43.16;101751.91;5217213;56;1138999;-63
2022/08/09 10:59:28;;;;;;;12.37;2.30;;;;;;;26.55;42.16;101758.20;5209207;56;1136894;-62
2022/08/09 11:04:34;;;;;;;;;;;;;;;26.31;42.46;101760.75;5229905;56;1139022;-64
2022/08/09 11:09:47;;;;;;;4.97;2.15;;;;;;;26.09;43.12;101757.67;5227046;56;974285;-63
2022/08/09 11:15:08;;;;;;;15.30;3.12;;;;;;;26.08;43.38;101761.41;5231521;55;1134782;-65
2022/08/09 11:20:15;;;;;;;11.73;2.77;;;;;;;26.07;43.05;101757.86;5242585;55;1136479;-64
2022/08/09 11:25:30;;;;;;;8.40;2.27;;;;;;;26.01;42.75;101755.05;5284992;55;1262134;-63
2022/08/09 11:30:37;;;;;;;9.33;3.00;;;;;;;26.14;42.54;101749.78;5292608;56;1139517;-64
2022/08/09 11:35:57;;;;;;;3.93;2.50;;;;;;;26.49;41.37;101742.69;5145602;57;1139101;-62
2022/08/09 11:41:13;;;;;;;7.90;2.17;;;;;;;26.79;39.32;101737.95;5136366;57;1139000;-64
2022/08/09 11:46:21;;;;;;;2.27;2.17;;;;;;;27.21;38.37;101737.05;5064934;57;1138934;-63
2022/08/09 11:51:28;;;;;;;6.20;2.33;;;;;;;27.47;36.44;101731.80;4980462;58;1139068;-63
2022/08/09 11:56:35;;;;;;;3.65;1.60;;;;;;;27.71;35.40;101725.03;5005409;57;1139290;-65
2022/08/09 12:01:43;;;;;;;5.83;2.05;;;;;;;27.74;36.75;101731.95;5218763;55;1139318;-64
2022/08/09 12:07:00;;;;;;;5.08;2.00;;;;;;;27.65;36.25;101725.31;5274140;54;1139145;-62
2022/08/09 12:12:07;;;;;;;9.73;2.17;;;;;;;27.38;35.96;101725.34;5306412;55;1138984;-65
2022/08/09 12:17:16;;;;;;;3.17;1.67;;;;;;;27.30;34.72;101721.77;5245257;55;1139025;-64
2022/08/09 12:22:23;;;;;;;2.33;2.10;;;;;;;27.46;36.61;101715.17;5320300;55;1139083;-65
2022/08/09 12:27:29;;;;;;;8.18;2.05;;;;;;;27.63;35.83;101717.06;5320058;55;1138983;-64
2022/08/09 12:32:35;;;;;;;4.25;2.22;;;;;;;27.83;36.40;101703.53;5265314;55;1139339;-65
2022/08/09 12:37:41;;;;;;;3.37;1.80;;;;;;;28.14;33.60;101705.20;5132558;57;1138983;-66
2022/08/09 12:42:48;;;;;;;3.25;1.85;;;;;;;28.11;33.29;101701.52;5100188;57;1139137;-65
2022/08/09 12:47:54;;;;;;;1.98;1.70;;;;;;;28.12;34.75;101696.92;5078791;57;1139044;-65
2022/08/09 12:53:00;;;;;;;4.22;1.60;;;;;;;28.23;34.55;101697.21;5148475;56;1138954;-64
2022/08/09 12:58:14;;;;;;;2.77;1.67;;;;;;;27.92;33.68;101695.53;5215380;55;1139127;-65
2022/08/09 13:03:33;;;;;;;9.00;2.42;;;;;;;27.56;34.53;101695.28;5301974;55;1139219;-62
2022/08/09 13:08:38;;;;;;;6.00;2.20;;;;;;;27.24;35.24;101688.59;5390368;55;1139409;-62
2022/08/09 13:13:44;;;;;;;5.00;2.30;;;;;;;27.52;37.04;101690.41;5192272;56;1139025;-68
2022/08/09 13:18:53;;;;;;;2.90;2.00;;;;;;;27.89;35.10;101685.05;5390045;54;1139262;-63
2022/08/09 13:24:09;;;;;;;2.40;2.02;;;;;;;28.05;34.86;101681.97;5142603;56;1139494;-64
2022/08/09 13:29:20;;;;;;;7.53;2.20;;;;;;;28.12;34.92;101684.16;5389973;55;1136897;-63
2022/08/09 13:34:30;;;;;;;7.95;1.90;;;;;;;28.09;35.31;101675.59;5142460;56;1136839;-66
2022/08/09 13:39:38;;;;;;;2.90;2.08;;;;;;;28.40;35.45;101674.53;5390248;54;1137295;-66
2022/08/09 13:44:45;;;;;;;11.05;3.27;;;;;;;28.50;35.51;101674.09;5142738;57;1136487;-63
2022/08/09 13:49:51;;;;;;;8.60;2.77;;;;;;;28.43;35.45;101675.44;5306335;55;1139087;-63
2022/08/09 13:54:57;;;;;;;7.90;2.22;;;;;;;28.21;34.53;101675.33;5241317;56;1136948;-66
2022/08/09 14:00:06;;;;;;;13.15;2.20;;;;;;;28.04;35.31;101680.28;5328694;55;1137027;-65
2022/08/09 14:05:14;;;;;;;5.17;1.57;;;;;;;28.10;36.18;101673.20;5294923;55;1139172;-64
2022/08/09 14:10:19;;;;;;;3.62;1.95;;;;;;;28.09;35.50;101668.28;5331174;55;1137044;-66
2022/08/09 14:15:25;;;;;;;8.55;2.10;;;;;;;28.04;35.38;101665.84;5331084;55;1137224;-64
2022/08/09 14:20:31;;;;;;;4.80;1.80;;;;;;;27.97;35.73;101669.38;5331280;55;1137145;-66
2022/08/09 14:25:37;;;;;;;5.70;1.85;;;;;;;28.11;36.42;101670.24;5331431;55;1137002;-64
2022/08/09 14:30:42;;;;;;;7.00;1.92;;;;;;;28.30;36.17;101676.28;5325058;55;1137196;-64
2022/08/09 14:35:48;;;;;;;4.70;1.77;;;;;;;28.17;36.21;101672.67;5378259;55;1137017;-66
2022/08/09 14:40:53;;;;;;;11.78;2.40;;;;;;;28.27;36.20;101677.20;5348258;55;1135227;-66
2022/08/09 14:46:00;;;;;;;16.48;2.17;;;;;;;28.27;34.78;101669.88;5143087;56;1137126;-66
2022/08/09 14:51:06;;;;;;;9.43;2.25;;;;;;;28.11;35.49;101677.59;5344152;55;1141231;-65
2022/08/09 14:56:12;;;;;;;11.90;2.03;;;;;;;27.93;35.44;101682.25;5307825;55;1138967;-63
2022/08/09 15:01:17;;;;;;;25.35;4.00;;;;;;;27.78;35.36;101682.41;5321976;55;1141090;-64
2022/08/09 15:06:23;;;;;;;18.80;3.37;;;;;;;27.68;35.50;101677.02;5321777;55;1141076;-63
2022/08/09 15:11:29;;;;;;;18.75;2.50;;;;;;;27.51;34.89;101679.22;5333897;55;1141158;-64
2022/08/09 15:16:35;;;;;;;13.53;2.33;;;;;;;27.40;35.14;101677.92;5142845;57;1141145;-67
2022/08/09 15:21:40;;;;;;;6.40;1.85;;;;;;;27.47;35.32;101688.31;5343142;55;1141236;-66
2022/08/09 15:26:46;;;;;;;21.00;2.85;;;;;;;27.26;35.23;101683.80;5321908;55;1139152;-64
2022/08/09 15:31:53;;;;;;;20.27;2.65;;;;;;;27.07;35.99;101683.16;5321739;55;1141289;-64
2022/08/09 15:36:59;;;;;;;9.35;1.80;;;;;;;26.91;35.91;101682.91;5320873;55;1141040;-66
2022/08/09 15:42:05;;;;;;;9.85;1.90;;;;;;;26.78;36.72;101693.67;5320986;55;1139008;-65
2022/08/09 15:47:11;;;;;;;15.32;2.12;;;;;;;26.66;37.73;101686.27;5310045;55;1138966;-66
2022/08/09 15:52:17;;;;;;;6.03;2.40;;;;;;;26.59;38.62;101693.83;5289063;55;1141561;-65
2022/08/09 15:57:25;;;;;;;13.88;2.27;;;;;;;26.61;39.59;101690.92;5287851;55;1139024;-66
2022/08/09 16:02:31;;;;;;;10.93;2.42;;;;;;;26.66;39.89;101688.98;5287195;55;1141281;-64
2022/08/09 16:07:38;;;;;;;24.12;2.52;;;;;;;26.66;40.37;101687.63;5287177;55;1141157;-65
2022/08/09 16:12:44;;;;;;;13.08;2.35;;;;;;;26.70;40.21;101692.99;5316275;55;1141085;-62
2022/08/09 16:17:50;;;;;;;10.80;2.62;;;;;;;26.70;40.14;101695.70;5310285;55;1141165;-63
2022/08/09 16:22:55;;;;;;;5.20;1.92;;;;;;;26.71;40.24;101698.23;5299782;55;1141148;-64
2022/08/09 16:28:01;;;;;;;11.90;2.05;;;;;;;26.66;40.34;101693.05;5299862;55;1139114;-63
2022/08/09 16:33:10;;;;;;;3.98;1.77;;;;;;;26.57;40.31;101691.02;5299576;55;1141117;-62
2022/08/09 16:38:16;;;;;;;22.52;2.47;;;;;;;26.40;40.53;101689.08;5289393;55;1139170;-64
2022/08/09 16:43:22;;;;;;;29.80;3.02;;;;;;;26.34;40.45;101683.06;5291183;55;1141111;-65
2022/08/09 16:48:28;;;;;;;14.75;2.12;;;;;;;26.22;39.58;101690.02;5324411;55;1141176;-66
2022/08/09 16:53:33;;;;;;;7.75;2.58;;;;;;;26.20;39.36;101695.63;5305509;55;1141349;-66
2022/08/09 16:58:40;;;;;;;5.42;1.92;;;;;;;26.24;38.98;101696.93;5298021;55;1139112;-65
2022/08/09 17:03:46;;;;;;;14.63;2.62;;;;;;;26.26;39.41;101700.81;5298002;55;1139040;-63
2022/08/09 17:08:51;;;;;;;10.30;2.20;;;;;;;26.18;40.73;101701.75;5305873;55;1141108;-65
2022/08/09 17:13:57;;;;;;;10.35;3.08;;;;;;;26.06;41.43;101697.03;5306131;55;1141107;-63
2022/08/09 17:19:03;;;;;;;18.70;2.62;;;;;;;26.00;41.51;101706.77;5378431;55;1141334;-65
2022/08/09 17:24:09;;;;;;;12.85;2.20;;;;;;;25.89;41.34;101705.91;5360159;55;1141188;-64
2022/08/09 17:29:15;;;;;;;9.20;2.83;;;;;;;25.69;41.98;101711.59;5312743;55;1141036;-63
2022/08/09 17:34:20;;;;;;;15.28;2.05;;;;;;;25.47;42.56;101714.73;5319430;55;1139020;-65
2022/08/09 17:39:25;;;;;;;4.47;2.10;;;;;;;25.34;43.30;101713.20;5305249;55;1140997;-64
2022/08/09 17:44:31;;;;;;;8.85;2.80;;;;;;;25.14;44.18;101715.60;5266010;55;1139021;-63
2022/08/09 17:49:37;;;;;;;7.00;2.62;;;;;;;25.00;44.75;101717.27;5295599;54;1139096;-64
2022/08/09 17:54:43;;;;;;;143.82;11.48;;;;;;;24.88;45.46;101722.77;5308504;54;1139196;-64
2022/08/09 17:59:49;;;;;;;9.40;2.83;;;;;;;24.76;45.63;101724.21;5305836;55;1145252;-63
2022/08/09 18:04:55;;;;;;;14.25;2.85;;;;;;;24.72;45.91;101728.33;5297346;54;1138925;-63
2022/08/09 18:10:01;;;;;;;16.45;2.65;;;;;;;24.67;46.00;101721.26;5333682;54;1141090;-63
2022/08/09 18:15:08;;;;;;;11.48;2.70;;;;;;;24.66;46.18;101733.94;5342350;54;1138977;-63
2022/08/09 18:20:15;;;;;;;23.85;3.20;;;;;;;24.58;46.29;101734.53;5355218;54;1139384;-64
2022/08/09 18:25:20;;;;;;;23.45;2.30;;;;;;;24.43;46.55;101738.53;5323936;55;1138977;-62
2022/08/09 18:30:26;;;;;;;6.45;2.58;;;;;;;24.37;46.91;101738.73;5323575;55;1139274;-64
2022/08/09 18:35:31;;;;;;;20.23;2.95;;;;;;;24.30;46.95;101746.38;5307224;55;1136889;-63
2022/08/09 18:40:37;;;;;;;22.25;3.95;;;;;;;24.27;47.26;101749.45;5324121;55;1139110;-62
2022/08/09 18:45:44;;;;;;;35.80;4.47;;;;;;;24.22;47.42;101758.57;5321009;55;1138942;-65
2022/08/09 18:50:49;;;;;;;43.40;6.62;;;;;;;24.16;47.58;101760.11;5373156;55;1138964;-63
2022/08/09 18:55:56;;;;;;;24.02;5.15;;;;;;;24.05;47.73;101765.41;5306472;55;1139083;-64
2022/08/09 19:01:02;;;;;;;39.83;4.20;;;;;;;23.93;48.04;101772.75;5300071;55;1139000;-63
2022/08/09 19:06:08;;;;;;;30.92;4.25;;;;;;;23.76;48.21;101778.72;5300909;55;1139231;-65
2022/08/09 19:11:15;;;;;;;25.27;3.50;;;;;;;23.53;48.69;101779.15;5279807;55;1139229;-65
2022/08/09 19:16:20;;;;;;;15.43;3.92;;;;;;;23.36;50.20;101775.61;5305940;55;1139071;-62
2022/08/09 19:21:26;;;;;;;28.00;3.72;;;;;;;23.18;50.44;101785.75;5330859;55;1139232;-62
2022/08/09 19:26:32;;;;;;;34.50;4.10;;;;;;;23.01;51.19;101793.02;5219215;56;1139077;-65
2022/08/09 19:31:38;;;;;;;30.05;3.77;;;;;;;22.84;51.59;101797.56;5337710;54;1139041;-65
2022/08/09 19:36:43;;;;;;;79.50;7.37;;;;;;;22.77;51.96;101790.64;5392433;54;1139027;-65
2022/08/09 19:41:49;;;;;;;35.58;4.65;;;;;;;22.79;52.35;101794.52;5423115;54;1139001;-65
2022/08/09 19:46:55;;;;;;;35.52;4.67;;;;;;;22.86;52.33;101792.00;5411382;54;1136980;-65
2022/08/09 19:52:01;;;;;;;74.77;39.50;;;;;;;22.90;52.20;101793.36;5335380;54;1137112;-63
2022/08/09 19:57:08;;;;;;;196.10;84.02;;;;;;;22.79;51.99;101794.02;5340979;55;1143334;-63
2022/08/09 20:02:14;;;;;;;183.13;64.70;;;;;;;22.70;52.16;101800.90;5143103;57;1145184;-62
2022/08/09 20:07:20;;;;;;;247.30;114.40;;;;;;;22.48;52.69;101802.87;5324861;55;1145314;-63
2022/08/09 20:12:26;;;;;;;53.33;21.17;;;;;;;22.20;53.40;101802.30;5362715;54;1147718;-65
2022/08/09 20:17:32;;;;;;;11.80;5.20;;;;;;;21.91;54.01;101807.55;5217873;56;1143530;-63
2022/08/09 20:22:39;;;;;;;18.48;5.53;;;;;;;21.66;54.68;101816.02;5398815;54;1141278;-65
2022/08/09 20:27:45;;;;;;;160.78;51.48;;;;;;;21.54;55.44;101813.22;5380050;54;1141144;-65
2022/08/09 20:32:50;;;;;;;27.90;10.53;;;;;;;21.53;56.16;101812.91;5320168;54;1145465;-65
2022/08/09 20:37:56;;;;;;;21.82;7.72;;;;;;;21.52;56.27;101820.64;5299749;55;1143237;-64
2022/08/09 20:43:02;;;;;;;20.45;7.47;;;;;;;21.55;56.89;101814.91;5299671;55;1141101;-65
2022/08/09 20:48:08;;;;;;;51.73;13.20;;;;;;;21.55;57.36;101814.06;5299730;55;1141181;-63
2022/08/09 20:53:13;;;;;;;33.65;7.12;;;;;;;21.45;57.23;101806.61;5299759;55;1143190;-64
2022/08/09 20:58:19;;;;;;;17.48;3.37;;;;;;;21.34;57.53;101798.31;5299768;55;1141039;-63
2022/08/09 21:03:25;;;;;;;4.22;3.18;;;;;;;21.12;57.50;101798.27;5299827;55;1141185;-64
2022/08/09 21:08:30;;;;;;;11.12;3.30;;;;;;;20.92;57.75;101797.63;5299777;55;1139057;-63
2022/08/09 21:13:36;;;;;;;6.95;2.83;;;;;;;20.78;57.95;101807.56;5362092;55;1141117;-65
2022/08/09 21:18:42;;;;;;;9.20;3.26;;;;;;;20.69;58.57;101811.18;5391045;55;1139041;-63
2022/08/09 21:23:47;;;;;;;15.53;3.50;;;;;;;20.77;58.89;101811.28;5405947;54;1139082;-62
2022/08/09 21:28:53;;;;;;;14.00;3.27;;;;;;;20.74;58.85;101815.61;5228380;56;1141135;-63
2022/08/09 21:33:59;;;;;;;9.88;3.30;;;;;;;20.70;59.12;101822.28;5330536;55;1141139;-63
2022/08/09 21:39:05;;;;;;;10.45;3.50;;;;;;;20.68;59.53;101827.81;5330406;55;1139020;-62
2022/08/09 21:44:11;;;;;;;5.78;3.18;;;;;;;20.36;59.34;101830.15;5330526;55;1141095;-63
2022/08/09 21:49:16;;;;;;;7.85;3.80;;;;;;;20.13;59.80;101844.97;5336371;54;1138894;-65
2022/08/09 21:54:25;;;;;;;11.22;3.25;;;;;;;20.09;60.59;101842.22;5338294;54;1138980;-64
2022/08/09 21:59:29;;;;;;;12.23;4.45;;;;;;;20.13;61.10;101835.06;5342716;54;1141163;-64
2022/08/09 22:04:35;;;;;;;15.80;4.45;;;;;;;20.15;61.20;101842.48;5342087;54;1141137;-65
2022/08/09 22:09:41;;;;;;;7.33;3.37;;;;;;;20.11;60.96;101846.95;5336406;54;1141293;-64
2022/08/09 22:14:47;;;;;;;21.27;4.97;;;;;;;19.86;60.83;101841.23;5353845;54;1139246;-65
2022/08/09 22:19:54;;;;;;;36.33;8.05;;;;;;;19.77;61.49;101842.13;5336593;54;1141372;-64
2022/08/09 22:25:00;;;;;;;23.85;5.55;;;;;;;19.83;61.99;101848.77;5330553;55;1141050;-65
2022/08/09 22:30:06;;;;;;;17.37;4.83;;;;;;;19.87;61.82;101852.33;5331204;55;1141097;-66
2022/08/09 22:35:11;;;;;;;38.95;6.65;;;;;;;19.90;61.72;101851.20;5330889;55;1141052;-65
2022/08/09 22:40:17;;;;;;;30.88;6.37;;;;;;;19.73;61.22;101846.59;5330706;55;1140546;-63
2022/08/09 22:45:23;;;;;;;26.12;5.85;;;;;;;19.73;61.80;101851.95;5331072;55;1141151;-64
2022/08/09 22:50:30;;;;;;;12.45;4.75;;;;;;;19.70;61.73;101854.95;5292898;55;1141112;-64
2022/08/09 22:55:36;;;;;;;14.90;4.22;;;;;;;19.59;61.64;101851.44;5406442;54;1141086;-65
2022/08/09 23:00:41;;;;;;;8.22;4.60;;;;;;;19.48;61.63;101855.60;5423572;54;1141226;-66
2022/08/09 23:05:47;;;;;;;13.25;4.72;;;;;;;19.33;61.64;101853.86;5415830;54;1139060;-64
2022/08/09 23:10:52;;;;;;;16.07;6.22;;;;;;;19.33;62.33;101848.98;5410928;54;1141079;-65
2022/08/09 23:15:59;;;;;;;13.05;4.87;;;;;;;19.28;62.43;101848.06;5173687;56;1141261;-65
2022/08/09 23:21:05;;;;;;;12.63;5.40;;;;;;;19.16;62.50;101846.53;5324485;54;1141246;-66
2022/08/09 23:26:11;;;;;;;20.65;6.17;;;;;;;19.11;63.01;101842.08;5235112;56;1139105;-64